sensor_id;sensor_type;location;lat;lon;timestamp;pressure;altitude;pressure_sealevel;temperature;humidity
68193;BME280;55012;47.562;18.414;2023-04-29T00:00:47;98876.84;;;11.40;100.00
68193;BME280;55012;47.562;18.414;2023-04-29T00:03:12;98878.78;;;11.40;100.00
68193;BME280;55012;47.562;18.414;2023-04-29T00:05:38;98886.13;;;11.39;100.00
68193;BME280;55012;47.562;18.414;2023-04-29T00:08:04;98880.69;;;11.39;100.00
68193;BME280;55012;47.562;18.414;2023-04-29T00:10:29;98885.34;;;11.39;100.00
68193;BME280;55012;47.562;18.414;2023-04-29T00:12:55;98881.44;;;11.36;100.00
68193;BME280;55012;47.562;18.414;2023-04-29T00:15:20;98885.69;;;11.37;100.00
68193;BME280;55012;47.562;18.414;2023-04-29T00:17:46;98883.78;;;11.38;100.00
68193;BME280;55012;47.562;18.414;2023-04-29T00:20:12;98890.69;;;11.35;100.00
68193;BME280;55012;47.562;18.414;2023-04-29T00:22:38;98890.25;;;11.33;100.00
68193;BME280;55012;47.562;18.414;2023-04-29T00:25:04;98877.00;;;11.28;100.00
68193;BME280;55012;47.562;18.414;2023-04-29T00:27:30;98889.34;;;11.25;100.00
68193;BME280;55012;47.562;18.414;2023-04-29T00:29:56;98884.28;;;11.24;100.00
68193;BME280;55012;47.562;18.414;2023-04-29T00:32:22;98881.88;;;11.19;100.00
68193;BME280;55012;47.562;18.414;2023-04-29T00:34:48;98882.56;;;11.16;100.00
68193;BME280;55012;47.562;18.414;2023-04-29T00:37:13;98882.09;;;11.10;100.00
68193;BME280;55012;47.562;18.414;2023-04-29T00:39:39;98878.94;;;11.08;100.00
68193;BME280;55012;47.562;18.414;2023-04-29T00:42:05;98880.53;;;11.09;100.00
68193;BME280;55012;47.562;18.414;2023-04-29T00:44:30;98882.38;;;11.05;100.00
68193;BME280;55012;47.562;18.414;2023-04-29T00:46:56;98881.53;;;11.01;100.00
68193;BME280;55012;47.562;18.414;2023-04-29T00:49:22;98882.31;;;11.02;100.00
68193;BME280;55012;47.562;18.414;2023-04-29T00:51:48;98874.19;;;11.02;100.00
68193;BME280;55012;47.562;18.414;2023-04-29T00:54:14;98878.81;;;11.01;100.00
68193;BME280;55012;47.562;18.414;2023-04-29T00:56:42;98872.16;;;10.98;100.00
68193;BME280;55012;47.562;18.414;2023-04-29T00:59:09;98865.97;;;10.98;100.00
68193;BME280;55012;47.562;18.414;2023-04-29T01:01:37;98873.31;;;10.97;100.00
68193;BME280;55012;47.562;18.414;2023-04-29T01:04:04;98869.81;;;10.97;100.00
68193;BME280;55012;47.562;18.414;2023-04-29T01:06:48;98872.91;;;10.95;100.00
68193;BME280;55012;47.562;18.414;2023-04-29T01:09:31;98864.69;;;10.92;100.00
68193;BME280;55012;47.562;18.414;2023-04-29T01:12:28;98864.25;;;10.90;100.00
68193;BME280;55012;47.562;18.414;2023-04-29T01:15:04;98847.56;;;10.84;100.00
68193;BME280;55012;47.562;18.414;2023-04-29T01:17:39;98853.22;;;10.79;100.00
68193;BME280;55012;47.562;18.414;2023-04-29T01:20:05;98851.56;;;10.75;100.00
68193;BME280;55012;47.562;18.414;2023-04-29T01:22:32;98854.22;;;10.71;100.00
68193;BME280;55012;47.562;18.414;2023-04-29T01:24:58;98862.34;;;10.71;100.00
68193;BME280;55012;47.562;18.414;2023-04-29T01:28:04;98863.19;;;10.75;100.00
68193;BME280;55012;47.562;18.414;2023-04-29T01:30:44;98867.53;;;10.80;100.00
68193;BME280;55012;47.562;18.414;2023-04-29T01:40:47;98868.13;;;10.89;100.00
68193;BME280;55012;47.562;18.414;2023-04-29T01:43:14;98868.13;;;10.89;100.00
68193;BME280;55012;47.562;18.414;2023-04-29T01:45:40;98874.66;;;10.88;100.00
68193;BME280;55012;47.562;18.414;2023-04-29T01:48:07;98888.03;;;10.81;100.00
68193;BME280;55012;47.562;18.414;2023-04-29T01:50:33;98892.63;;;10.77;100.00
68193;BME280;55012;47.562;18.414;2023-04-29T01:52:59;98885.59;;;10.76;100.00
68193;BME280;55012;47.562;18.414;2023-04-29T01:55:24;98893.72;;;10.76;100.00
68193;BME280;55012;47.562;18.414;2023-04-29T01:57:50;98892.25;;;10.78;100.00
68193;BME280;55012;47.562;18.414;2023-04-29T02:00:16;98888.75;;;10.78;100.00
68193;BME280;55012;47.562;18.414;2023-04-29T02:02:41;98885.59;;;10.76;100.00
68193;BME280;55012;47.562;18.414;2023-04-29T02:05:07;98881.28;;;10.71;100.00
68193;BME280;55012;47.562;18.414;2023-04-29T02:07:34;98867.31;;;10.69;100.00
68193;BME280;55012;47.562;18.414;2023-04-29T02:09:59;98857.66;;;10.68;100.00
68193;BME280;55012;47.562;18.414;2023-04-29T02:12:24;98868.09;;;10.69;100.00
68193;BME280;55012;47.562;18.414;2023-04-29T02:14:53;98864.69;;;10.73;100.00
68193;BME280;55012;47.562;18.414;2023-04-29T02:17:19;98867.75;;;10.71;100.00
68193;BME280;55012;47.562;18.414;2023-04-29T02:19:44;98871.16;;;10.68;100.00
68193;BME280;55012;47.562;18.414;2023-04-29T02:22:10;98875.00;;;10.67;100.00
68193;BME280;55012;47.562;18.414;2023-04-29T02:24:37;98866.09;;;10.66;100.00
68193;BME280;55012;47.562;18.414;2023-04-29T02:27:02;98870.72;;;10.66;100.00
68193;BME280;55012;47.562;18.414;2023-04-29T02:29:30;98868.78;;;10.66;100.00
68193;BME280;55012;47.562;18.414;2023-04-29T02:31:56;98866.09;;;10.66;100.00
68193;BME280;55012;47.562;18.414;2023-04-29T02:34:22;98864.16;;;10.67;100.00
68193;BME280;55012;47.562;18.414;2023-04-29T02:36:48;98863.38;;;10.66;100.00
68193;BME280;55012;47.562;18.414;2023-04-29T02:39:14;98872.22;;;10.63;100.00
68193;BME280;55012;47.562;18.414;2023-04-29T02:41:39;98874.16;;;10.63;100.00
68193;BME280;55012;47.562;18.414;2023-04-29T02:44:06;98880.34;;;10.63;100.00
68193;BME280;55012;47.562;18.414;2023-04-29T02:46:32;98881.13;;;10.64;100.00
68193;BME280;55012;47.562;18.414;2023-04-29T02:48:59;98878.00;;;10.62;100.00
68193;BME280;55012;47.562;18.414;2023-04-29T02:51:25;98883.41;;;10.62;100.00
68193;BME280;55012;47.562;18.414;2023-04-29T02:53:51;98878.78;;;10.62;100.00
68193;BME280;55012;47.562;18.414;2023-04-29T02:56:16;98869.88;;;10.62;100.00
68193;BME280;55012;47.562;18.414;2023-04-29T02:58:41;98875.34;;;10.65;100.00
68193;BME280;55012;47.562;18.414;2023-04-29T03:01:07;98878.50;;;10.67;100.00
68193;BME280;55012;47.562;18.414;2023-04-29T03:03:33;98879.19;;;10.64;100.00
68193;BME280;55012;47.562;18.414;2023-04-29T03:05:58;98877.22;;;10.61;100.00
68193;BME280;55012;47.562;18.414;2023-04-29T03:08:24;98882.19;;;10.59;100.00
68193;BME280;55012;47.562;18.414;2023-04-29T03:10:49;98875.19;;;10.58;100.00
68193;BME280;55012;47.562;18.414;2023-04-29T03:13:14;98880.53;;;10.55;100.00
68193;BME280;55012;47.562;18.414;2023-04-29T03:15:40;98880.97;;;10.57;100.00
68193;BME280;55012;47.562;18.414;2023-04-29T03:18:05;98879.38;;;10.56;100.00
68193;BME280;55012;47.562;18.414;2023-04-29T03:20:31;98884.91;;;10.59;100.00
68193;BME280;55012;47.562;18.414;2023-04-29T03:22:57;98879.91;;;10.61;100.00
68193;BME280;55012;47.562;18.414;2023-04-29T03:25:22;98877.22;;;10.61;100.00
68193;BME280;55012;47.562;18.414;2023-04-29T03:27:48;98885.69;;;10.60;100.00
68193;BME280;55012;47.562;18.414;2023-04-29T03:30:14;98879.03;;;10.57;100.00
68193;BME280;55012;47.562;18.414;2023-04-29T03:32:39;98881.38;;;10.59;100.00
68193;BME280;55012;47.562;18.414;2023-04-29T03:35:05;98885.69;;;10.60;100.00
68193;BME280;55012;47.562;18.414;2023-04-29T03:37:31;98891.88;;;10.60;100.00
68193;BME280;55012;47.562;18.414;2023-04-29T03:39:56;98879.13;;;10.61;100.00
68193;BME280;55012;47.562;18.414;2023-04-29T03:42:22;98896.03;;;10.58;100.00
68193;BME280;55012;47.562;18.414;2023-04-29T03:44:47;98887.88;;;10.54;100.00
68193;BME280;55012;47.562;18.414;2023-04-29T03:47:12;98895.19;;;10.54;100.00
68193;BME280;55012;47.562;18.414;2023-04-29T03:49:38;98906.81;;;10.54;100.00
68193;BME280;55012;47.562;18.414;2023-04-29T03:52:04;98897.53;;;10.55;100.00
68193;BME280;55012;47.562;18.414;2023-04-29T03:54:29;98907.66;;;10.58;100.00
68193;BME280;55012;47.562;18.414;2023-04-29T03:56:55;98910.03;;;10.60;100.00
68193;BME280;55012;47.562;18.414;2023-04-29T03:59:20;98903.91;;;10.63;100.00
68193;BME280;55012;47.562;18.414;2023-04-29T04:01:46;98907.44;;;10.67;100.00
68193;BME280;55012;47.562;18.414;2023-04-29T04:04:11;98907.91;;;10.69;100.00
68193;BME280;55012;47.562;18.414;2023-04-29T04:06:37;98908.69;;;10.69;100.00
68193;BME280;55012;47.562;18.414;2023-04-29T04:09:03;98913.31;;;10.69;100.00
68193;BME280;55012;47.562;18.414;2023-04-29T04:11:28;98915.72;;;10.74;100.00
68193;BME280;55012;47.562;18.414;2023-04-29T04:13:54;98915.38;;;10.76;100.00
68193;BME280;55012;47.562;18.414;2023-04-29T04:16:19;98910.78;;;10.76;100.00
68193;BME280;55012;47.562;18.414;2023-04-29T04:18:45;98898.81;;;10.77;100.00
68193;BME280;55012;47.562;18.414;2023-04-29T04:21:11;98891.47;;;10.78;100.00
68193;BME280;55012;47.562;18.414;2023-04-29T04:23:37;98891.47;;;10.78;100.00
68193;BME280;55012;47.562;18.414;2023-04-29T04:26:06;98890.69;;;10.77;100.00
68193;BME280;55012;47.562;18.414;2023-04-29T04:28:32;98889.44;;;10.75;100.00
68193;BME280;55012;47.562;18.414;2023-04-29T04:30:57;98876.28;;;10.73;100.00
68193;BME280;55012;47.562;18.414;2023-04-29T04:33:24;98883.56;;;10.69;100.00
68193;BME280;55012;47.562;18.414;2023-04-29T04:35:49;98876.84;;;10.63;100.00
68193;BME280;55012;47.562;18.414;2023-04-29T04:38:15;98875.34;;;10.65;100.00
68193;BME280;55012;47.562;18.414;2023-04-29T04:40:41;98869.25;;;10.68;100.00
68193;BME280;55012;47.562;18.414;2023-04-29T04:43:07;98870.38;;;10.67;100.00
68193;BME280;55012;47.562;18.414;2023-04-29T04:45:32;98875.94;;;10.75;100.00
68193;BME280;55012;47.562;18.414;2023-04-29T04:47:58;98873.59;;;10.73;100.00
68193;BME280;55012;47.562;18.414;2023-04-29T04:50:23;98884.13;;;10.78;100.00
68193;BME280;55012;47.562;18.414;2023-04-29T04:52:49;98884.28;;;10.85;100.00
68193;BME280;55012;47.562;18.414;2023-04-29T04:55:14;98884.72;;;10.87;100.00
68193;BME280;55012;47.562;18.414;2023-04-29T04:57:40;98883.94;;;10.87;100.00
68193;BME280;55012;47.562;18.414;2023-04-29T05:00:06;98883.28;;;10.93;100.00
68193;BME280;55012;47.562;18.414;2023-04-29T05:02:31;98885.28;;;10.96;100.00
68193;BME280;55012;47.562;18.414;2023-04-29T05:04:57;98892.97;;;10.94;100.00
68193;BME280;55012;47.562;18.414;2023-04-29T05:07:22;98890.34;;;10.98;100.00
68193;BME280;55012;47.562;18.414;2023-04-29T05:09:48;98892.00;;;11.03;100.00
68193;BME280;55012;47.562;18.414;2023-04-29T05:12:13;98890.13;;;11.07;100.00
68193;BME280;55012;47.562;18.414;2023-04-29T05:14:39;98890.69;;;11.16;100.00
68193;BME280;55012;47.562;18.414;2023-04-29T05:17:04;98895.47;;;11.22;100.00
68193;BME280;55012;47.562;18.414;2023-04-29T05:19:30;98890.63;;;11.32;100.00
68193;BME280;55012;47.562;18.414;2023-04-29T05:21:55;98900.84;;;11.42;100.00
68193;BME280;55012;47.562;18.414;2023-04-29T05:24:21;98899.53;;;11.51;100.00
68193;BME280;55012;47.562;18.414;2023-04-29T05:26:46;98894.50;;;11.53;100.00
68193;BME280;55012;47.562;18.414;2023-04-29T05:29:14;98898.06;;;11.58;100.00
68193;BME280;55012;47.562;18.414;2023-04-29T05:31:39;98894.66;;;11.61;100.00
68193;BME280;55012;47.562;18.414;2023-04-29T05:34:05;98904.34;;;11.62;100.00
68193;BME280;55012;47.562;18.414;2023-04-29T05:36:31;98901.56;;;11.58;100.00
68193;BME280;55012;47.562;18.414;2023-04-29T05:38:56;98898.50;;;11.60;100.00
68193;BME280;55012;47.562;18.414;2023-04-29T05:41:22;98894.34;;;11.66;100.00
68193;BME280;55012;47.562;18.414;2023-04-29T05:43:49;98903.38;;;11.73;100.00
68193;BME280;55012;47.562;18.414;2023-04-29T05:46:15;98908.88;;;11.77;100.00
68193;BME280;55012;47.562;18.414;2023-04-29T05:48:41;98917.41;;;11.79;100.00
68193;BME280;55012;47.562;18.414;2023-04-29T05:51:06;98917.78;;;11.77;100.00
68193;BME280;55012;47.562;18.414;2023-04-29T05:53:31;98920.22;;;11.82;100.00
68193;BME280;55012;47.562;18.414;2023-04-29T05:55:57;98921.50;;;11.89;100.00
68193;BME280;55012;47.562;18.414;2023-04-29T05:58:23;98928.56;;;11.93;100.00
68193;BME280;55012;47.562;18.414;2023-04-29T06:00:49;98926.22;;;11.92;100.00
68193;BME280;55012;47.562;18.414;2023-04-29T06:03:15;98923.84;;;11.90;100.00
68193;BME280;55012;47.562;18.414;2023-04-29T06:05:41;98917.34;;;11.95;100.00
68193;BME280;55012;47.562;18.414;2023-04-29T06:08:07;98910.41;;;11.97;100.00
68193;BME280;55012;47.562;18.414;2023-04-29T06:10:32;98922.09;;;12.01;100.00
68193;BME280;55012;47.562;18.414;2023-04-29T06:12:58;98920.09;;;11.98;100.00
68193;BME280;55012;47.562;18.414;2023-04-29T06:15:23;98914.38;;;12.03;100.00
68193;BME280;55012;47.562;18.414;2023-04-29T06:17:49;98907.16;;;12.11;100.00
68193;BME280;55012;47.562;18.414;2023-04-29T06:20:14;98912.03;;;12.25;100.00
68193;BME280;55012;47.562;18.414;2023-04-29T06:22:40;98910.31;;;12.40;100.00
68193;BME280;55012;47.562;18.414;2023-04-29T06:25:05;98891.91;;;12.52;100.00
68193;BME280;55012;47.562;18.414;2023-04-29T06:27:31;98891.22;;;12.59;100.00
68193;BME280;55012;47.562;18.414;2023-04-29T06:29:56;98891.25;;;12.62;100.00
68193;BME280;55012;47.562;18.414;2023-04-29T06:32:22;98884.47;;;12.76;100.00
68193;BME280;55012;47.562;18.414;2023-04-29T06:34:47;98887.34;;;12.90;100.00
68193;BME280;55012;47.562;18.414;2023-04-29T06:37:14;98892.88;;;12.97;100.00
68193;BME280;55012;47.562;18.414;2023-04-29T06:39:39;98896.16;;;13.10;100.00
68193;BME280;55012;47.562;18.414;2023-04-29T06:42:05;98899.38;;;13.19;100.00
68193;BME280;55012;47.562;18.414;2023-04-29T06:44:30;98899.84;;;13.25;100.00
68193;BME280;55012;47.562;18.414;2023-04-29T06:46:56;98893.31;;;13.29;100.00
68193;BME280;55012;47.562;18.414;2023-04-29T06:49:21;98893.69;;;13.31;100.00
68193;BME280;55012;47.562;18.414;2023-04-29T06:51:47;98890.22;;;13.31;100.00
68193;BME280;55012;47.562;18.414;2023-04-29T06:54:12;98892.50;;;13.25;100.00
68193;BME280;55012;47.562;18.414;2023-04-29T06:56:38;98900.19;;;13.19;100.00
68193;BME280;55012;47.562;18.414;2023-04-29T06:59:03;98904.25;;;13.06;100.00
68193;BME280;55012;47.562;18.414;2023-04-29T07:01:29;98911.06;;;12.93;100.00
68193;BME280;55012;47.562;18.414;2023-04-29T07:03:55;98916.63;;;12.74;100.00
68193;BME280;55012;47.562;18.414;2023-04-29T07:06:21;98916.94;;;12.69;100.00
68193;BME280;55012;47.562;18.414;2023-04-29T07:08:46;98919.59;;;12.65;100.00
68193;BME280;55012;47.562;18.414;2023-04-29T07:11:12;98916.16;;;12.68;100.00
68193;BME280;55012;47.562;18.414;2023-04-29T07:13:37;98918.25;;;12.78;100.00
68193;BME280;55012;47.562;18.414;2023-04-29T07:16:03;98913.00;;;12.92;100.00
68193;BME280;55012;47.562;18.414;2023-04-29T07:18:28;98910.38;;;13.00;100.00
68193;BME280;55012;47.562;18.414;2023-04-29T07:20:54;98917.50;;;13.11;100.00
68193;BME280;55012;47.562;18.414;2023-04-29T07:23:20;98915.38;;;13.24;100.00
68193;BME280;55012;47.562;18.414;2023-04-29T07:25:45;98916.38;;;13.46;100.00
68193;BME280;55012;47.562;18.414;2023-04-29T07:28:11;98917.72;;;13.63;100.00
68193;BME280;55012;47.562;18.414;2023-04-29T07:30:36;98924.44;;;13.72;100.00
68193;BME280;55012;47.562;18.414;2023-04-29T07:33:02;98914.75;;;13.75;100.00
68193;BME280;55012;47.562;18.414;2023-04-29T07:35:29;98923.34;;;13.81;100.00
68193;BME280;55012;47.562;18.414;2023-04-29T07:37:54;98927.75;;;13.92;100.00
68193;BME280;55012;47.562;18.414;2023-04-29T07:40:20;98923.16;;;14.00;100.00
68193;BME280;55012;47.562;18.414;2023-04-29T07:42:45;98932.31;;;14.29;100.00
68193;BME280;55012;47.562;18.414;2023-04-29T07:45:11;98927.19;;;14.65;100.00
68193;BME280;55012;47.562;18.414;2023-04-29T07:47:38;98914.53;;;15.01;100.00
68193;BME280;55012;47.562;18.414;2023-04-29T07:50:04;98926.72;;;15.25;100.00
68193;BME280;55012;47.562;18.414;2023-04-29T07:52:29;98926.00;;;15.42;100.00
68193;BME280;55012;47.562;18.414;2023-04-29T07:54:55;98935.38;;;15.48;100.00
68193;BME280;55012;47.562;18.414;2023-04-29T07:57:21;98939.69;;;15.60;100.00
68193;BME280;55012;47.562;18.414;2023-04-29T07:59:50;98935.84;;;15.75;100.00
68193;BME280;55012;47.562;18.414;2023-04-29T08:02:16;98954.16;;;15.78;100.00
68193;BME280;55012;47.562;18.414;2023-04-29T08:04:42;98953.38;;;15.70;100.00
68193;BME280;55012;47.562;18.414;2023-04-29T08:07:07;98946.75;;;15.75;100.00
68193;BME280;55012;47.562;18.414;2023-04-29T08:09:33;98955.34;;;15.73;100.00
68193;BME280;55012;47.562;18.414;2023-04-29T08:11:59;98952.19;;;15.71;100.00
68193;BME280;55012;47.562;18.414;2023-04-29T08:14:25;98960.72;;;15.59;100.00
68193;BME280;55012;47.562;18.414;2023-04-29T08:16:51;98955.25;;;15.59;100.00
68193;BME280;55012;47.562;18.414;2023-04-29T08:19:16;98954.94;;;15.64;100.00
68193;BME280;55012;47.562;18.414;2023-04-29T08:21:42;98962.28;;;15.60;100.00
68193;BME280;55012;47.562;18.414;2023-04-29T08:24:07;98958.75;;;15.60;100.00
68193;BME280;55012;47.562;18.414;2023-04-29T08:26:32;98949.09;;;15.66;100.00
68193;BME280;55012;47.562;18.414;2023-04-29T08:28:58;98962.63;;;15.55;100.00
68193;BME280;55012;47.562;18.414;2023-04-29T08:31:24;98965.00;;;15.57;100.00
68193;BME280;55012;47.562;18.414;2023-04-29T08:33:50;98954.94;;;15.68;100.00
68193;BME280;55012;47.562;18.414;2023-04-29T08:36:15;98956.13;;;15.85;100.00
68193;BME280;55012;47.562;18.414;2023-04-29T08:38:40;98956.56;;;16.12;100.00
68193;BME280;55012;47.562;18.414;2023-04-29T08:41:07;98956.56;;;16.54;100.00
68193;BME280;55012;47.562;18.414;2023-04-29T08:43:34;98958.84;;;17.02;100.00
68193;BME280;55012;47.562;18.414;2023-04-29T08:46:04;98968.53;;;17.39;100.00
68193;BME280;55012;47.562;18.414;2023-04-29T08:48:31;98975.50;;;17.51;100.00
68193;BME280;55012;47.562;18.414;2023-04-29T08:50:56;98969.56;;;17.70;100.00
68193;BME280;55012;47.562;18.414;2023-04-29T08:53:26;98975.31;;;17.90;100.00
68193;BME280;55012;47.562;18.414;2023-04-29T08:55:53;98981.91;;;18.00;100.00
68193;BME280;55012;47.562;18.414;2023-04-29T08:58:19;98978.28;;;18.17;100.00
68193;BME280;55012;47.562;18.414;2023-04-29T09:00:46;98978.97;;;18.32;100.00
68193;BME280;55012;47.562;18.414;2023-04-29T09:03:30;98977.25;;;18.48;100.00
68193;BME280;55012;47.562;18.414;2023-04-29T09:05:59;98979.97;;;18.52;100.00
68193;BME280;55012;47.562;18.414;2023-04-29T09:08:26;98987.81;;;18.50;100.00
68193;BME280;55012;47.562;18.414;2023-04-29T09:10:52;98983.94;;;18.44;100.00
68193;BME280;55012;47.562;18.414;2023-04-29T09:13:23;98993.19;;;18.61;100.00
68193;BME280;55012;47.562;18.414;2023-04-29T09:15:49;98985.97;;;18.85;100.00
68193;BME280;55012;47.562;18.414;2023-04-29T09:18:47;98998.69;;;19.05;100.00
68193;BME280;55012;47.562;18.414;2023-04-29T09:21:24;98997.78;;;19.16;100.00
68193;BME280;55012;47.562;18.414;2023-04-29T09:24:02;98986.69;;;19.26;100.00
68193;BME280;55012;47.562;18.414;2023-04-29T09:26:35;98994.06;;;19.36;100.00
68193;BME280;55012;47.562;18.414;2023-04-29T09:29:12;98992.31;;;19.50;100.00
68193;BME280;55012;47.562;18.414;2023-04-29T09:31:39;98992.59;;;19.62;100.00
68193;BME280;55012;47.562;18.414;2023-04-29T09:34:05;99002.38;;;19.63;100.00
68193;BME280;55012;47.562;18.414;2023-04-29T09:36:37;98993.53;;;19.79;100.00
68193;BME280;55012;47.562;18.414;2023-04-29T09:39:04;98990.19;;;19.95;100.00
68193;BME280;55012;47.562;18.414;2023-04-29T09:41:39;98991.53;;;20.10;100.00
68193;BME280;55012;47.562;18.414;2023-04-29T09:44:06;98990.53;;;20.24;100.00
68193;BME280;55012;47.562;18.414;2023-04-29T09:46:33;98985.81;;;20.52;100.00
68193;BME280;55012;47.562;18.414;2023-04-29T09:48:59;98971.06;;;20.65;100.00
68193;BME280;55012;47.562;18.414;2023-04-29T09:51:25;98977.41;;;20.62;100.00
68193;BME280;55012;47.562;18.414;2023-04-29T09:53:50;98977.19;;;20.53;100.00
68193;BME280;55012;47.562;18.414;2023-04-29T09:56:16;98977.78;;;20.37;100.00
68193;BME280;55012;47.562;18.414;2023-04-29T09:58:41;98968.09;;;20.29;100.00
68193;BME280;55012;47.562;18.414;2023-04-29T10:01:07;98963.44;;;20.26;100.00
68193;BME280;55012;47.562;18.414;2023-04-29T10:03:36;98969.97;;;19.82;100.00
68193;BME280;55012;47.562;18.414;2023-04-29T10:06:04;98968.72;;;19.56;100.00
68193;BME280;55012;47.562;18.414;2023-04-29T10:08:31;98963.66;;;19.54;100.00
68193;BME280;55012;47.562;18.414;2023-04-29T10:11:00;98957.22;;;19.68;100.00
68193;BME280;55012;47.562;18.414;2023-04-29T10:13:27;98952.28;;;19.86;100.00
68193;BME280;55012;47.562;18.414;2023-04-29T10:18:40;98932.31;;;20.09;100.00
68193;BME280;55012;47.562;18.414;2023-04-29T10:21:10;98924.53;;;19.77;100.00
68193;BME280;55012;47.562;18.414;2023-04-29T10:23:36;98918.88;;;19.61;100.00
68193;BME280;55012;47.562;18.414;2023-04-29T10:26:02;98904.50;;;19.50;100.00
68193;BME280;55012;47.562;18.414;2023-04-29T10:28:31;98901.22;;;19.31;100.00
68193;BME280;55012;47.562;18.414;2023-04-29T10:31:00;98892.47;;;19.13;100.00
68193;BME280;55012;47.562;18.414;2023-04-29T10:33:29;98893.97;;;18.84;100.00
68193;BME280;55012;47.562;18.414;2023-04-29T10:35:55;98896.06;;;18.72;100.00
68193;BME280;55012;47.562;18.414;2023-04-29T10:38:28;98898.06;;;18.61;100.00
68193;BME280;55012;47.562;18.414;2023-04-29T10:40:55;98909.59;;;18.45;100.00
68193;BME280;55012;47.562;18.414;2023-04-29T10:43:25;98900.94;;;18.50;100.00
68193;BME280;55012;47.562;18.414;2023-04-29T10:46:18;98898.03;;;18.68;100.00
68193;BME280;55012;47.562;18.414;2023-04-29T10:48:45;98900.22;;;18.84;100.00
68193;BME280;55012;47.562;18.414;2023-04-29T10:51:10;98899.59;;;18.69;100.00
68193;BME280;55012;47.562;18.414;2023-04-29T10:54:03;98903.50;;;18.68;100.00
68193;BME280;55012;47.562;18.414;2023-04-29T10:56:41;98896.13;;;18.65;100.00
68193;BME280;55012;47.562;18.414;2023-04-29T10:59:11;98893.38;;;18.65;100.00
68193;BME280;55012;47.562;18.414;2023-04-29T11:01:45;98901.13;;;18.74;100.00
68193;BME280;55012;47.562;18.414;2023-04-29T11:04:11;98900.78;;;19.06;100.00
68193;BME280;55012;47.562;18.414;2023-04-29T11:06:38;98895.56;;;19.46;100.00
68193;BME280;55012;47.562;18.414;2023-04-29T11:09:12;98899.47;;;19.75;100.00
68193;BME280;55012;47.562;18.414;2023-04-29T11:14:15;98891.97;;;20.53;100.00
68193;BME280;55012;47.562;18.414;2023-04-29T11:16:51;98902.66;;;20.91;100.00
68193;BME280;55012;47.562;18.414;2023-04-29T11:19:17;98905.97;;;21.22;100.00
68193;BME280;55012;47.562;18.414;2023-04-29T11:21:44;98913.25;;;21.32;100.00
68193;BME280;55012;47.562;18.414;2023-04-29T11:24:11;98920.09;;;21.44;100.00
68193;BME280;55012;47.562;18.414;2023-04-29T11:26:39;98911.88;;;21.60;100.00
68193;BME280;55012;47.562;18.414;2023-04-29T11:29:07;98903.28;;;21.74;100.00
68193;BME280;55012;47.562;18.414;2023-04-29T11:31:35;98913.69;;;21.67;100.00
68193;BME280;55012;47.562;18.414;2023-04-29T11:34:03;98909.97;;;21.57;100.00
68193;BME280;55012;47.562;18.414;2023-04-29T11:36:31;98908.63;;;21.29;100.00
68193;BME280;55012;47.562;18.414;2023-04-29T11:38:59;98911.53;;;21.18;100.00
68193;BME280;55012;47.562;18.414;2023-04-29T11:41:25;98910.75;;;21.18;100.00
68193;BME280;55012;47.562;18.414;2023-04-29T11:43:57;98908.63;;;21.25;100.00
68193;BME280;55012;47.562;18.414;2023-04-29T11:46:23;98913.88;;;21.40;100.00
68193;BME280;55012;47.562;18.414;2023-04-29T11:48:49;98908.84;;;21.54;100.00
68193;BME280;55012;47.562;18.414;2023-04-29T11:51:16;98914.03;;;21.52;100.00
68193;BME280;55012;47.562;18.414;2023-04-29T11:53:42;98903.06;;;21.49;100.00
68193;BME280;55012;47.562;18.414;2023-04-29T11:56:10;98898.91;;;21.61;100.00
68193;BME280;55012;47.562;18.414;2023-04-29T11:58:36;98891.00;;;21.79;100.00
68193;BME280;55012;47.562;18.414;2023-04-29T12:01:03;98898.75;;;22.00;100.00
68193;BME280;55012;47.562;18.414;2023-04-29T12:03:30;98909.16;;;21.93;100.00
68193;BME280;55012;47.562;18.414;2023-04-29T12:05:56;98908.63;;;21.81;100.00
68193;BME280;55012;47.562;18.414;2023-04-29T12:08:23;98905.31;;;21.54;100.00
68193;BME280;55012;47.562;18.414;2023-04-29T12:10:50;98900.34;;;21.29;100.00
68193;BME280;55012;47.562;18.414;2023-04-29T12:13:17;98896.81;;;21.09;100.00
68193;BME280;55012;47.562;18.414;2023-04-29T12:15:47;98902.09;;;20.99;100.00
68193;BME280;55012;47.562;18.414;2023-04-29T12:18:15;98893.63;;;20.70;100.00
68193;BME280;55012;47.562;18.414;2023-04-29T12:20:41;98895.28;;;20.41;100.00
68193;BME280;55012;47.562;18.414;2023-04-29T12:23:17;98894.53;;;20.40;100.00
68193;BME280;55012;47.562;18.414;2023-04-29T12:25:52;98889.38;;;20.42;100.00
68193;BME280;55012;47.562;18.414;2023-04-29T12:28:18;98889.81;;;20.41;100.00
68193;BME280;55012;47.562;18.414;2023-04-29T12:30:48;98881.22;;;20.39;100.00
68193;BME280;55012;47.562;18.414;2023-04-29T12:33:24;98886.63;;;20.46;100.00
68193;BME280;55012;47.562;18.414;2023-04-29T12:35:53;98882.59;;;20.51;100.00
68193;BME280;55012;47.562;18.414;2023-04-29T12:38:31;98884.88;;;20.75;100.00
68193;BME280;55012;47.562;18.414;2023-04-29T12:41:00;98875.94;;;21.11;100.00
68193;BME280;55012;47.562;18.414;2023-04-29T12:43:29;98871.25;;;21.48;100.00
68193;BME280;55012;47.562;18.414;2023-04-29T12:46:03;98881.44;;;21.83;100.00
68193;BME280;55012;47.562;18.414;2023-04-29T12:48:32;98878.38;;;22.14;100.00
68193;BME280;55012;47.562;18.414;2023-04-29T12:50:59;98871.91;;;22.66;100.00
68193;BME280;55012;47.562;18.414;2023-04-29T12:53:26;98864.50;;;23.21;100.00